createdAt,value
2017-11-28T00:01:59.881Z,5.83
2017-11-28T00:04:27.376Z,5.65
2017-11-28T00:06:54.878Z,5.74
2017-11-28T00:09:22.384Z,5.71
2017-11-28T00:11:49.901Z,5.73
2017-11-28T00:14:17.395Z,5.69
2017-11-28T00:16:44.879Z,5.59
2017-11-28T00:19:12.382Z,5.54
2017-11-28T00:21:39.900Z,5.64
2017-11-28T00:24:07.413Z,5.58
2017-11-28T00:26:34.921Z,5.57
2017-11-28T00:29:02.873Z,5.65
2017-11-28T00:31:30.500Z,5.69
2017-11-28T00:33:58.011Z,5.67
2017-11-28T00:36:25.496Z,5.74
2017-11-28T00:38:53.009Z,5.71
2017-11-28T00:41:20.527Z,5.72
2017-11-28T00:43:48.108Z,5.66
2017-11-28T00:46:15.602Z,5.64
2017-11-28T00:48:43.097Z,5.78
2017-11-28T00:51:10.618Z,5.72
2017-11-28T00:53:38.141Z,5.73
2017-11-28T00:56:05.664Z,5.70
2017-11-28T00:58:33.182Z,5.81
2017-11-28T01:01:00.679Z,5.81
2017-11-28T01:03:28.184Z,5.72
2017-11-28T01:05:55.686Z,5.75
2017-11-28T01:08:23.191Z,5.76
2017-11-28T01:10:50.703Z,5.73
2017-11-28T01:13:18.187Z,5.83
2017-11-28T01:15:45.689Z,5.75
2017-11-28T01:18:13.735Z,5.76
2017-11-28T01:20:41.231Z,5.72
2017-11-28T01:23:08.712Z,5.74
2017-11-28T01:25:36.234Z,5.70
2017-11-28T01:28:03.758Z,5.62
2017-11-28T01:30:31.259Z,5.76
2017-11-28T01:32:58.800Z,5.74
2017-11-28T01:35:26.387Z,5.75
2017-11-28T01:37:53.987Z,5.80
2017-11-28T01:40:21.630Z,5.78
2017-11-28T01:42:49.210Z,5.80
2017-11-28T01:45:16.702Z,5.87
2017-11-28T01:47:44.198Z,5.81
2017-11-28T01:50:11.694Z,5.78
2017-11-28T01:52:39.211Z,5.87
2017-11-28T01:55:06.794Z,5.83
2017-11-28T01:57:34.286Z,5.87
2017-11-28T02:00:02.614Z,5.80
2017-11-28T02:02:30.134Z,5.84
2017-11-28T02:04:57.647Z,5.83
2017-11-28T02:07:25.195Z,5.83
2017-11-28T02:09:52.688Z,5.94
2017-11-28T02:12:20.172Z,5.95
2017-11-28T02:14:47.664Z,5.89
2017-11-28T02:17:15.171Z,5.98
2017-11-28T02:19:42.659Z,6.00
2017-11-28T02:22:10.311Z,5.98
2017-11-28T02:24:37.860Z,6.03
2017-11-28T02:27:06.228Z,6.11
2017-11-28T02:29:33.863Z,6.08
2017-11-28T02:32:01.419Z,6.05
2017-11-28T02:34:28.975Z,6.12
2017-11-28T02:36:56.552Z,6.06
2017-11-28T02:39:24.040Z,6.09
2017-11-28T02:41:51.548Z,6.09
2017-11-28T02:44:19.034Z,6.08
2017-11-28T02:46:46.524Z,6.09
2017-11-28T02:49:15.700Z,6.10
2017-11-28T02:51:44.783Z,6.13
2017-11-28T02:54:12.274Z,6.05
2017-11-28T02:56:39.779Z,6.06
2017-11-28T02:59:08.755Z,6.07
2017-11-28T03:01:40.081Z,6.07
2017-11-28T03:04:14.323Z,6.13
2017-11-28T03:06:47.497Z,6.07
2017-11-28T03:09:28.788Z,6.11
2017-11-28T03:11:57.546Z,6.09
2017-11-28T03:14:38.652Z,6.20
2017-11-28T03:17:10.509Z,6.09
2017-11-28T03:19:48.445Z,6.25
2017-11-28T03:22:32.019Z,6.14
2017-11-28T03:25:05.192Z,6.16
2017-11-28T03:27:37.233Z,6.10
2017-11-28T03:30:09.788Z,6.15
2017-11-28T03:32:40.498Z,6.17
2017-11-28T03:35:13.216Z,6.13
2017-11-28T03:37:45.208Z,6.25
2017-11-28T03:40:18.161Z,6.18
2017-11-28T03:42:50.505Z,6.20
2017-11-28T03:48:35.845Z,6.13
2017-11-28T03:51:09.057Z,6.11
2017-11-28T03:53:39.913Z,6.10
2017-11-28T03:56:07.525Z,6.16
2017-11-28T03:58:36.017Z,6.33
2017-11-28T04:01:04.839Z,6.34
2017-11-28T04:03:37.121Z,6.10
2017-11-28T04:06:04.883Z,6.14
2017-11-28T04:08:32.767Z,6.14
2017-11-28T04:11:02.936Z,6.01
2017-11-28T04:13:31.283Z,6.12
2017-11-28T04:16:04.361Z,6.05
2017-11-28T04:18:36.065Z,6.04
2017-11-28T04:21:05.969Z,6.07
2017-11-28T04:23:37.568Z,6.00
2017-11-28T04:26:09.904Z,6.03
2017-11-28T04:28:37.745Z,5.99
2017-11-28T04:31:07.163Z,5.97
2017-11-28T04:33:34.649Z,5.99
2017-11-28T04:36:04.468Z,5.92
2017-11-28T04:38:34.388Z,5.99
2017-11-28T04:41:05.644Z,5.93
2017-11-28T04:43:35.316Z,6.05
2017-11-28T04:46:05.348Z,5.97
2017-11-28T04:48:38.728Z,5.99
2017-11-28T04:51:09.969Z,5.91
2017-11-28T04:53:41.343Z,6.00
2017-11-28T04:56:13.551Z,6.04
2017-11-28T04:58:45.563Z,5.92
2017-11-28T05:01:17.470Z,5.98
2017-11-28T05:03:49.418Z,6.08
2017-11-28T05:06:19.080Z,6.07
2017-11-28T05:08:46.876Z,6.06
2017-11-28T05:11:14.588Z,6.03
2017-11-28T05:13:42.151Z,5.99
2017-11-28T05:16:10.415Z,5.91
2017-11-28T05:18:37.941Z,5.96
2017-11-28T05:21:07.596Z,6.13
2017-11-28T05:23:35.509Z,5.97
2017-11-28T05:26:04.011Z,5.98
2017-11-28T05:28:32.415Z,5.93
2017-11-28T05:31:02.253Z,5.79
2017-11-28T05:33:30.954Z,5.80
2017-11-28T05:35:59.005Z,5.88
2017-11-28T05:38:26.652Z,5.89
2017-11-28T05:40:57.102Z,5.82
2017-11-28T05:43:27.221Z,5.89
2017-11-28T05:45:56.784Z,5.84
2017-11-28T05:48:24.412Z,5.77
2017-11-28T05:50:52.409Z,5.78
2017-11-28T05:53:37.489Z,5.89
2017-11-28T05:56:05.271Z,5.79
2017-11-28T05:58:34.308Z,5.76
2017-11-28T06:01:03.777Z,5.99
2017-11-28T06:03:31.414Z,5.91
2017-11-28T06:06:07.831Z,5.82
2017-11-28T06:08:35.370Z,5.88
2017-11-28T06:11:02.880Z,5.87
2017-11-28T06:14:26.139Z,5.77
2017-11-28T06:17:47.323Z,5.87
2017-11-28T06:20:14.831Z,5.77
2017-11-28T06:23:53.171Z,5.85
2017-11-28T06:26:20.663Z,5.82
2017-11-28T06:28:57.008Z,5.79
2017-11-28T06:31:36.246Z,5.83
2017-11-28T06:34:03.901Z,5.76
2017-11-28T06:36:31.384Z,5.92
2017-11-28T06:42:23.054Z,5.77
2017-11-28T06:48:01.799Z,5.76
2017-11-28T06:50:30.017Z,5.76
2017-11-28T06:52:57.675Z,5.73
2017-11-28T06:55:25.388Z,5.84
2017-11-28T06:57:52.975Z,5.75
2017-11-28T07:00:20.477Z,5.78
2017-11-28T07:02:50.203Z,5.75
2017-11-28T07:05:21.354Z,5.72
2017-11-28T07:07:52.194Z,5.78
2017-11-28T07:10:20.615Z,5.90
2017-11-28T07:12:48.665Z,5.95
2017-11-28T07:15:18.414Z,5.80
2017-11-28T07:17:46.499Z,5.90
2017-11-28T07:20:13.983Z,5.89
2017-11-28T07:23:20.207Z,5.99
2017-11-28T07:25:48.713Z,5.91
2017-11-28T07:28:18.555Z,5.88
2017-11-28T07:30:46.046Z,5.89
2017-11-28T07:33:14.981Z,5.90
2017-11-28T07:35:42.492Z,5.85
2017-11-28T07:38:10.605Z,5.84
2017-11-28T07:40:38.097Z,5.83
2017-11-28T07:43:44.798Z,5.84
2017-11-28T07:46:14.315Z,5.85
2017-11-28T07:48:41.819Z,5.95
2017-11-28T07:51:09.336Z,5.99
2017-11-28T07:53:36.843Z,5.93
2017-11-28T07:59:23.262Z,5.96
2017-11-28T08:01:53.808Z,5.89
2017-11-28T08:04:23.375Z,5.85
2017-11-28T08:06:54.020Z,6.07
2017-11-28T08:09:27.169Z,5.96
2017-11-28T08:12:00.616Z,5.89
2017-11-28T08:14:29.531Z,6.10
2017-11-28T08:17:01.433Z,5.96
2017-11-28T08:19:31.067Z,5.91
2017-11-28T08:22:03.792Z,6.19
2017-11-28T08:24:36.813Z,6.24
2017-11-28T08:27:08.143Z,6.07
2017-11-28T08:29:37.494Z,6.13
2017-11-28T08:32:10.467Z,6.15
2017-11-28T08:34:44.078Z,5.93
2017-11-28T08:37:15.857Z,6.09
2017-11-28T08:39:49.573Z,6.06
2017-11-28T08:42:19.093Z,6.03
2017-11-28T08:44:46.761Z,6.11
2017-11-28T08:47:19.180Z,5.99
2017-11-28T08:49:46.779Z,6.05
2017-11-28T08:52:17.485Z,6.13
2017-11-28T08:54:50.167Z,6.25
2017-11-28T08:57:20.681Z,5.87
2017-11-28T08:59:50.528Z,5.89
2017-11-28T09:02:18.927Z,6.08
2017-11-28T09:04:50.497Z,5.97
2017-11-28T09:07:18.128Z,6.20
2017-11-28T09:09:45.619Z,6.10
2017-11-28T09:12:13.231Z,6.11
2017-11-28T09:14:40.740Z,5.88
2017-11-28T09:17:08.259Z,6.05
2017-11-28T09:19:35.829Z,6.06
2017-11-28T09:22:03.472Z,6.07
2017-11-28T09:24:30.967Z,6.04
2017-11-28T09:26:58.463Z,5.87
2017-11-28T09:29:26.092Z,6.15
2017-11-28T09:31:53.585Z,6.11
2017-11-28T09:34:21.193Z,6.33
2017-11-28T09:36:48.712Z,6.02
2017-11-28T09:39:16.211Z,6.07
2017-11-28T09:41:43.725Z,6.25
2017-11-28T09:44:11.213Z,6.17
2017-11-28T09:46:38.734Z,6.20
2017-11-28T09:49:06.267Z,6.07
2017-11-28T09:51:33.786Z,6.02
2017-11-28T09:54:01.290Z,6.30
2017-11-28T09:56:28.799Z,6.00
2017-11-28T09:58:56.335Z,6.06
2017-11-28T10:01:23.849Z,5.91
2017-11-28T10:03:51.336Z,5.85
2017-11-28T10:06:18.861Z,5.89
2017-11-28T10:08:46.392Z,5.99
2017-11-28T10:11:13.881Z,5.91
2017-11-28T10:13:41.393Z,5.96
2017-11-28T10:16:08.883Z,5.98
2017-11-28T10:18:36.372Z,6.03
2017-11-28T10:21:03.872Z,5.94
2017-11-28T10:23:31.411Z,5.83
2017-11-28T10:25:58.901Z,5.92
2017-11-28T10:28:26.418Z,5.80
2017-11-28T10:30:53.911Z,5.74
2017-11-28T10:33:21.399Z,5.81
2017-11-28T10:35:48.898Z,5.95
2017-11-28T10:38:16.401Z,6.05
2017-11-28T10:40:43.900Z,5.97
2017-11-28T10:43:11.378Z,6.03
2017-11-28T10:45:38.905Z,5.74
2017-11-28T10:48:06.410Z,5.83
2017-11-28T10:50:33.918Z,6.02
2017-11-28T10:53:01.402Z,5.96
2017-11-28T10:55:28.900Z,5.93
2017-11-28T10:57:56.398Z,5.92
2017-11-28T11:00:23.908Z,5.74
2017-11-28T11:02:51.425Z,6.07
2017-11-28T11:05:18.931Z,6.24
2017-11-28T11:07:46.418Z,6.10
2017-11-28T11:10:13.911Z,6.08
2017-11-28T11:12:41.427Z,5.91
2017-11-28T11:15:08.917Z,6.03
2017-11-28T11:17:36.409Z,6.04
2017-11-28T11:20:03.899Z,6.14
2017-11-28T11:22:31.387Z,6.00
2017-11-28T11:24:58.875Z,6.07
2017-11-28T11:27:26.383Z,6.14
2017-11-28T11:29:53.907Z,6.16
2017-11-28T11:32:21.395Z,6.24
2017-11-28T11:34:48.905Z,6.47
2017-11-28T11:37:16.398Z,6.16
2017-11-28T11:39:43.893Z,6.02
2017-11-28T11:42:11.398Z,6.19
2017-11-28T11:44:38.877Z,6.14
2017-11-28T11:47:06.371Z,6.23
2017-11-28T11:49:33.865Z,5.99
2017-11-28T11:52:01.366Z,5.98
2017-11-28T11:54:28.906Z,6.21
2017-11-28T11:56:56.395Z,6.10
2017-11-28T11:59:23.899Z,6.24
2017-11-28T12:01:51.415Z,6.20
2017-11-28T12:04:18.905Z,6.31
2017-11-28T12:06:46.414Z,6.24
2017-11-28T12:09:14.012Z,6.22
2017-11-28T12:11:41.524Z,5.90
2017-11-28T12:14:09.022Z,5.91
2017-11-28T12:16:36.536Z,5.95
2017-11-28T12:19:04.027Z,6.00
2017-11-28T12:21:31.526Z,6.34
2017-11-28T12:23:59.068Z,6.17
2017-11-28T12:26:26.557Z,6.03
2017-11-28T12:28:54.078Z,5.98
2017-11-28T12:31:21.583Z,6.14
2017-11-28T12:33:49.106Z,6.43
2017-11-28T12:36:16.606Z,5.89
2017-11-28T12:38:44.100Z,5.98
2017-11-28T12:41:11.603Z,6.01
2017-11-28T12:43:39.103Z,6.16
2017-11-28T12:46:06.586Z,6.31
2017-11-28T12:48:34.093Z,6.11
2017-11-28T12:51:01.591Z,6.04
2017-11-28T12:53:29.090Z,5.97
2017-11-28T12:55:56.600Z,5.96
2017-11-28T12:58:24.087Z,6.17
2017-11-28T13:00:51.751Z,6.30
2017-11-28T13:03:19.234Z,6.04
2017-11-28T13:05:46.731Z,6.19
2017-11-28T13:08:14.229Z,6.00
2017-11-28T13:10:41.766Z,6.17
2017-11-28T13:13:09.297Z,6.10
2017-11-28T13:15:36.807Z,6.56
2017-11-28T13:18:04.294Z,6.54
2017-11-28T13:20:31.800Z,5.94
2017-11-28T13:22:59.314Z,6.03
2017-11-28T13:25:26.835Z,6.16
2017-11-28T13:27:54.316Z,5.92
2017-11-28T13:30:21.812Z,6.00
2017-11-28T13:32:49.311Z,6.04
2017-11-28T13:35:16.809Z,6.39
2017-11-28T13:37:44.308Z,6.10
2017-11-28T13:40:11.851Z,5.95
2017-11-28T13:42:39.356Z,5.82
2017-11-28T13:45:06.842Z,5.89
2017-11-28T13:47:34.341Z,5.80
2017-11-28T13:50:01.846Z,5.95
2017-11-28T13:52:29.343Z,5.99
2017-11-28T13:54:56.852Z,5.65
2017-11-28T13:57:24.359Z,5.79
2017-11-28T13:59:51.859Z,5.86
2017-11-28T14:02:19.351Z,5.70
2017-11-28T14:04:46.981Z,5.59
2017-11-28T14:07:14.473Z,5.83
2017-11-28T14:09:41.995Z,5.50
2017-11-28T14:12:09.602Z,5.37
2017-11-28T14:14:37.153Z,5.43
2017-11-28T14:17:04.639Z,5.48
2017-11-28T14:19:32.954Z,5.42
2017-11-28T14:25:06.017Z,5.55
2017-11-28T14:27:34.426Z,5.49
2017-11-28T14:30:05.003Z,5.50
2017-11-28T14:32:38.099Z,5.40
2017-11-28T14:35:11.206Z,5.37
2017-11-28T14:37:38.706Z,5.49
2017-11-28T14:40:06.188Z,5.50
2017-11-28T14:42:38.598Z,5.53
2017-11-28T14:48:12.338Z,5.69
2017-11-28T14:53:46.690Z,5.67
2017-11-28T14:56:14.569Z,5.43
2017-11-28T14:58:47.624Z,5.26
2017-11-28T15:01:20.618Z,5.52
2017-11-28T15:03:53.124Z,5.33
2017-11-28T15:09:46.443Z,5.50
2017-11-28T15:12:19.451Z,5.40
2017-11-28T15:14:52.490Z,5.29
2017-11-28T15:17:25.757Z,5.66
2017-11-28T15:19:54.235Z,5.37
2017-11-28T15:22:30.222Z,5.60
2017-11-28T15:25:02.753Z,5.33
2017-11-28T15:27:30.247Z,5.19
2017-11-28T15:29:57.774Z,4.99
2017-11-28T15:32:25.286Z,5.52
2017-11-28T15:34:52.775Z,5.40
2017-11-28T15:37:20.339Z,5.49
2017-11-28T15:39:47.908Z,5.40
2017-11-28T15:42:15.410Z,5.56
2017-11-28T15:44:42.898Z,5.60
2017-11-28T15:47:10.413Z,5.26
2017-11-28T15:49:37.915Z,4.93
2017-11-28T15:52:05.403Z,4.88
2017-11-28T15:54:32.930Z,4.80
2017-11-28T15:57:00.473Z,5.16
2017-11-28T15:59:27.993Z,5.17
2017-11-28T16:01:55.504Z,5.13
2017-11-28T16:04:23.004Z,5.15
2017-11-28T16:06:50.506Z,5.23
2017-11-28T16:09:18.010Z,4.96
2017-11-28T16:11:45.595Z,5.02
2017-11-28T16:14:13.101Z,5.05
2017-11-28T16:16:41.355Z,4.84
2017-11-28T16:19:08.870Z,4.42
2017-11-28T16:21:36.368Z,4.75
2017-11-28T16:24:03.880Z,4.71
2017-11-28T16:26:31.368Z,4.92
2017-11-28T16:28:58.872Z,4.56
2017-11-28T16:31:26.375Z,4.86
2017-11-28T16:33:53.859Z,4.35
2017-11-28T16:36:21.352Z,4.68
2017-11-28T16:38:48.862Z,4.53
2017-11-28T16:41:16.371Z,4.38
2017-11-28T16:43:43.890Z,4.44
2017-11-28T16:46:11.382Z,4.60
2017-11-28T16:48:38.871Z,4.42
2017-11-28T16:51:06.379Z,4.54
2017-11-28T16:53:33.871Z,4.67
2017-11-28T16:56:01.387Z,4.48
2017-11-28T16:58:28.994Z,4.32
2017-11-28T17:00:56.534Z,4.39
2017-11-28T17:03:24.032Z,4.18
2017-11-28T17:05:51.534Z,3.95
2017-11-28T17:08:19.022Z,4.13
2017-11-28T17:10:46.543Z,4.08
2017-11-28T17:13:14.043Z,3.98
2017-11-28T17:15:41.536Z,4.17
2017-11-28T17:18:09.083Z,4.08
2017-11-28T17:20:36.591Z,4.00
2017-11-28T17:23:04.145Z,3.88
2017-11-28T17:25:31.669Z,4.00
2017-11-28T17:27:59.185Z,3.96
2017-11-28T17:30:26.724Z,4.28
2017-11-28T17:32:54.228Z,4.18
2017-11-28T17:35:21.741Z,4.10
2017-11-28T17:37:49.270Z,3.93
2017-11-28T17:40:16.807Z,3.94
2017-11-28T17:42:44.304Z,3.69
2017-11-28T17:45:11.835Z,3.64
2017-11-28T17:47:39.451Z,4.03
2017-11-28T17:50:07.020Z,4.14
2017-11-28T17:52:34.553Z,3.90
2017-11-28T17:55:02.053Z,3.78
2017-11-28T17:57:29.560Z,4.17
2017-11-28T17:59:57.109Z,4.59
2017-11-28T18:02:24.667Z,4.45
2017-11-28T18:04:52.185Z,4.24
2017-11-28T18:07:19.700Z,4.22
2017-11-28T18:09:47.203Z,4.17
2017-11-28T18:12:14.689Z,3.95
2017-11-28T18:14:42.224Z,3.71
2017-11-28T18:17:09.741Z,3.64
2017-11-28T18:19:37.243Z,3.62
2017-11-28T18:22:04.757Z,3.45
2017-11-28T18:24:32.288Z,3.50
2017-11-28T18:26:59.806Z,3.87
2017-11-28T18:29:27.333Z,3.94
2017-11-28T18:31:54.849Z,3.75
2017-11-28T18:34:22.350Z,3.90
2017-11-28T18:36:49.937Z,3.70
2017-11-28T18:39:17.479Z,3.46
2017-11-28T18:41:44.979Z,3.55
2017-11-28T18:44:12.496Z,3.75
2017-11-28T18:46:40.001Z,3.66
2017-11-28T18:49:07.518Z,3.95
2017-11-28T18:51:35.043Z,3.82
2017-11-28T18:54:02.559Z,3.62
2017-11-28T18:56:30.103Z,3.72
2017-11-28T18:58:57.627Z,3.99
2017-11-28T19:01:25.238Z,4.01
2017-11-28T19:03:52.750Z,3.85
2017-11-28T19:06:20.257Z,4.10
2017-11-28T19:08:47.777Z,4.23
2017-11-28T19:11:15.300Z,4.51
2017-11-28T19:13:42.804Z,4.40
2017-11-28T19:16:10.322Z,3.64
2017-11-28T19:18:37.836Z,3.77
2017-11-28T19:21:05.349Z,3.54
2017-11-28T19:23:32.947Z,3.36
2017-11-28T19:26:00.436Z,3.57
2017-11-28T19:28:28.049Z,3.67
2017-11-28T19:30:55.570Z,3.60
2017-11-28T19:33:23.091Z,3.19
2017-11-28T19:35:50.596Z,3.29
2017-11-28T19:38:18.131Z,3.63
2017-11-28T19:40:45.651Z,3.20
2017-11-28T19:43:13.160Z,3.66
2017-11-28T19:45:40.686Z,3.51
2017-11-28T19:48:08.196Z,3.55
2017-11-28T19:50:35.732Z,3.84
2017-11-28T19:53:03.280Z,3.93
2017-11-28T19:55:30.960Z,4.21
2017-11-28T19:57:58.474Z,3.76
2017-11-28T20:00:26.050Z,3.82
2017-11-28T20:02:53.555Z,3.79
2017-11-28T20:05:21.168Z,4.02
2017-11-28T20:07:48.718Z,3.48
2017-11-28T20:10:16.235Z,3.76
2017-11-28T20:12:43.735Z,3.88
2017-11-28T20:15:11.253Z,3.73
2017-11-28T20:17:38.797Z,3.65
2017-11-28T20:20:06.303Z,3.35
2017-11-28T20:22:33.808Z,3.53
2017-11-28T20:25:01.314Z,3.67
2017-11-28T20:27:28.827Z,4.09
2017-11-28T20:29:56.347Z,3.96
2017-11-28T20:32:23.856Z,3.86
2017-11-28T20:34:51.345Z,3.54
2017-11-28T20:37:18.885Z,3.31
2017-11-28T20:39:46.427Z,3.14
2017-11-28T20:42:14.220Z,3.26
2017-11-28T20:44:41.875Z,3.22
2017-11-28T20:47:09.434Z,3.24
2017-11-28T20:49:36.953Z,2.85
2017-11-28T20:52:04.474Z,2.92
2017-11-28T20:54:31.974Z,3.26
2017-11-28T20:56:59.506Z,3.61
2017-11-28T20:59:27.096Z,3.62
2017-11-28T21:01:54.612Z,3.71
2017-11-28T21:04:22.141Z,3.81
2017-11-28T21:06:49.692Z,3.80
2017-11-28T21:09:17.247Z,3.40
2017-11-28T21:11:44.777Z,3.04
2017-11-28T21:14:12.287Z,3.35
2017-11-28T21:16:39.986Z,3.51
2017-11-28T21:19:07.481Z,3.47
2017-11-28T21:21:34.994Z,2.82
2017-11-28T21:24:02.485Z,3.21
2017-11-28T21:26:30.037Z,3.50
2017-11-28T21:28:57.527Z,3.64
2017-11-28T21:31:25.064Z,3.57
2017-11-28T21:33:52.621Z,3.68
2017-11-28T21:36:20.159Z,3.14
2017-11-28T21:38:47.685Z,3.19
2017-11-28T21:41:15.215Z,3.53
2017-11-28T21:43:42.745Z,3.56
2017-11-28T21:46:10.242Z,3.89
2017-11-28T21:48:37.756Z,3.87
2017-11-28T21:51:05.253Z,3.97
2017-11-28T21:53:32.744Z,3.98
2017-11-28T21:56:00.305Z,3.69
2017-11-28T21:58:27.830Z,3.79
2017-11-28T22:00:55.324Z,3.80
2017-11-28T22:03:22.824Z,3.73
2017-11-28T22:05:50.354Z,3.66
2017-11-28T22:08:17.873Z,3.93
2017-11-28T22:10:45.384Z,3.50
2017-11-28T22:13:12.898Z,3.63
2017-11-28T22:15:41.163Z,3.62
2017-11-28T22:18:08.742Z,3.65
2017-11-28T22:20:36.269Z,3.28
2017-11-28T22:23:03.784Z,3.50
2017-11-28T22:25:31.283Z,3.11
2017-11-28T22:27:58.794Z,3.02
2017-11-28T22:30:26.304Z,2.72
2017-11-28T22:32:53.802Z,3.23
2017-11-28T22:35:21.290Z,3.29
2017-11-28T22:37:48.807Z,3.58
2017-11-28T22:40:16.306Z,3.34
2017-11-28T22:42:43.794Z,3.20
2017-11-28T22:45:11.324Z,3.56
2017-11-28T22:47:38.818Z,3.55
2017-11-28T22:50:06.325Z,3.38
2017-11-28T22:52:33.814Z,3.52
2017-11-28T22:55:01.324Z,3.43
2017-11-28T22:57:28.864Z,3.26
2017-11-28T22:59:56.355Z,3.46
2017-11-28T23:02:23.859Z,3.78
2017-11-28T23:04:51.358Z,3.62
2017-11-28T23:07:18.879Z,2.73
2017-11-28T23:09:46.403Z,2.46
2017-11-28T23:12:14.033Z,2.44
2017-11-28T23:14:48.398Z,2.38
2017-11-28T23:17:15.899Z,2.45
2017-11-28T23:19:43.411Z,2.42
2017-11-28T23:22:10.906Z,2.56
2017-11-28T23:24:38.398Z,2.97
2017-11-28T23:27:05.945Z,3.17
2017-11-28T23:29:33.438Z,3.49
2017-11-28T23:32:00.941Z,3.69
2017-11-28T23:34:28.453Z,3.78
2017-11-28T23:36:56.002Z,3.72
2017-11-28T23:39:23.466Z,3.21
2017-11-28T23:41:50.971Z,3.25
2017-11-28T23:44:18.462Z,2.78
2017-11-28T23:46:45.966Z,2.68
2017-11-28T23:49:13.469Z,2.87
2017-11-28T23:51:40.978Z,3.21
2017-11-28T23:54:08.586Z,3.20
2017-11-28T23:56:36.118Z,3.53
2017-11-28T23:59:03.635Z,3.90
